Jump to content


AMERICAN CONNECTION FLIGHT AA5715 FLOWN ON 04-11-2018 BY CAPTAIN JIM BOERMAN

Pilot StatsCaptain Jim Boerman (LDP136) • 4,870.7 total hours • 1,472 total flights [View Logbook]
FLIGHT DETAILS
StatusReceived and approved on 2018-04-11 at 11:04:07
Origin AirportDallas-Ft Worth Intl (KDFW) • Dallas-Ft Worth, Texas, United States (607 feet MSL)
Filed Flight PlanFLIGHT PLANNER OFFLINE
Destination AirportBirmingham Intl (KBHM) • Birmingham, Alabama, United States (644 feet MSL)
Alternate AirportGolden Triangle Regl (KGTR) • Columbus-W Point-Starkvi, Mississippi, United States (264 feet MSL)
AirlineAmerican Connection
AircraftBombardier CRJ-900 (CR9 / CRJ-900)
FS Aircraft UsedCRJ900ER US Airways Express N247LR
Cruising AltitudeFL330
Distance Flown518 nautical miles
Passengers Onboard67 passengers (77.91% full)
DEPARTURE DETAILS
Time Out08:40:56
Taxi Data77,824 lbs total with 11,806 lbs of fuel onboard
Takeoff Data09:03:56 (23 minutes after leaving gate/ramp) • 77,132 lbs total • 7° pitch at 171 knots
Departure METARKDFW 111253Z 18007KT 10SM BKN300 12/06 A3015 RMK AO2 SLP206 T01170056
ARRIVAL DETAILS
Landing Data10:26:58 • 71,889 lbs total • 2° pitch doing 126 knots at a rate of -236.84 feet/minute with 5,647 lbs of fuel onboard
Time In10:36:40 (10 minutes after landing)
Ramp Weight71,560 lbs total
Total Fuel Used6,159 lbs
Total Block Time01:55:44 (1.9 hours) while 33 minutes were spent on the ground
Arrival METARKBHM 111453Z 01008KT 10SM FEW250 14/03 A3028 RMK AO2 SLP252 T01440028 51013
MISCELLANEOUS DETAILS
LiveDISPATCH Version4.8.3.1
FS Version
FSUIPC Version5.12
OS VersionWindows 7 32-bit
Screen Resolution1920 x 1080
Pilot's CommentsNo Comments Reported
FLIGHT MAP